createdAt,value
2022-12-17T00:00:05.578Z,23.83
2022-12-17T00:02:51.440Z,25.73
2022-12-17T00:05:37.936Z,30.13
2022-12-17T00:08:24.561Z,29.77
2022-12-17T00:11:10.126Z,29.37
2022-12-17T00:13:55.998Z,29.13
2022-12-17T00:16:43.685Z,28.07
2022-12-17T00:19:29.573Z,29.77
2022-12-17T00:22:15.591Z,27.37
2022-12-17T00:25:01.125Z,29.30
2022-12-17T00:27:47.077Z,29.63
2022-12-17T00:30:33.060Z,27.33
2022-12-17T00:33:20.826Z,28.17
2022-12-17T00:36:10.551Z,27.07
2022-12-17T00:38:56.914Z,27.10
2022-12-17T00:41:42.917Z,26.80
2022-12-17T00:44:29.524Z,27.63
2022-12-17T00:47:15.510Z,28.00
2022-12-17T00:50:02.587Z,28.37
2022-12-17T00:52:53.832Z,28.70
2022-12-17T00:55:42.113Z,30.23
2022-12-17T00:58:42.384Z,29.43
2022-12-17T01:01:28.769Z,28.52
2022-12-17T01:04:14.549Z,29.33
2022-12-17T01:07:01.708Z,28.17
2022-12-17T01:09:49.137Z,29.43
2022-12-17T01:12:35.248Z,30.03
2022-12-17T01:15:21.314Z,30.30
2022-12-17T01:18:07.224Z,29.43
2022-12-17T01:21:04.588Z,29.33
2022-12-17T01:23:51.574Z,28.03
2022-12-17T01:26:37.372Z,29.13
2022-12-17T01:29:23.360Z,28.23
2022-12-17T01:32:09.295Z,26.87
2022-12-17T01:34:56.405Z,27.83
2022-12-17T01:37:42.461Z,26.03
2022-12-17T01:40:30.085Z,26.37
2022-12-17T01:43:18.152Z,26.85
2022-12-17T01:46:07.376Z,26.57
2022-12-17T01:48:59.232Z,25.93
2022-12-17T01:51:46.583Z,24.63
2022-12-17T01:54:34.920Z,25.07
2022-12-17T01:57:24.662Z,25.63
2022-12-17T02:00:17.937Z,25.17
2022-12-17T02:03:04.184Z,23.00
2022-12-17T02:05:58.514Z,24.10
2022-12-17T02:08:54.524Z,24.13
2022-12-17T02:11:55.453Z,25.07
2022-12-17T02:14:51.166Z,23.63
2022-12-17T02:17:43.551Z,24.97
2022-12-17T02:20:40.631Z,25.07
2022-12-17T02:23:39.638Z,24.17
2022-12-17T02:26:32.521Z,24.23
2022-12-17T02:29:22.552Z,23.07
2022-12-17T02:32:11.424Z,25.40
2022-12-17T02:35:05.058Z,24.87
2022-12-17T02:37:53.170Z,23.10
2022-12-17T02:40:40.464Z,23.67
2022-12-17T02:43:27.814Z,24.53
2022-12-17T02:46:15.868Z,24.37
2022-12-17T02:49:02.260Z,24.97
2022-12-17T02:51:50.796Z,24.20
2022-12-17T02:54:36.746Z,24.30
2022-12-17T02:57:24.216Z,25.40
2022-12-17T03:00:10.207Z,25.33
2022-12-17T03:02:57.484Z,25.87
2022-12-17T03:05:48.722Z,26.23
2022-12-17T03:08:34.294Z,25.23
2022-12-17T03:11:21.201Z,26.37
2022-12-17T03:14:07.207Z,26.30
2022-12-17T03:16:52.406Z,27.17
2022-12-17T03:19:39.396Z,25.90
2022-12-17T03:22:25.395Z,26.17
2022-12-17T03:25:12.232Z,26.80
2022-12-17T03:27:58.155Z,27.63
2022-12-17T03:30:48.674Z,25.57
2022-12-17T03:33:37.412Z,27.67
2022-12-17T03:36:26.314Z,28.60
2022-12-17T03:39:12.091Z,28.00
2022-12-17T03:41:58.171Z,27.70
2022-12-17T03:44:44.112Z,27.90
2022-12-17T03:47:29.682Z,27.30
2022-12-17T03:50:15.713Z,29.10
2022-12-17T03:53:02.597Z,29.30
2022-12-17T03:55:48.627Z,27.57
2022-12-17T03:58:34.536Z,28.47
2022-12-17T04:01:20.443Z,26.73
2022-12-17T04:04:06.521Z,27.53
2022-12-17T04:06:52.049Z,30.00
2022-12-17T04:09:39.148Z,29.53
2022-12-17T04:12:25.070Z,29.03
2022-12-17T04:15:10.918Z,30.20
2022-12-17T04:17:56.935Z,31.70
2022-12-17T04:20:42.619Z,31.30
2022-12-17T04:23:28.582Z,32.50
2022-12-17T04:26:15.791Z,30.70
2022-12-17T04:29:01.783Z,32.50
2022-12-17T04:31:47.961Z,31.70
2022-12-17T04:34:33.695Z,31.57
2022-12-17T04:37:19.478Z,31.87
2022-12-17T04:40:05.517Z,31.77
2022-12-17T04:42:52.628Z,33.30
2022-12-17T04:45:38.497Z,32.97
2022-12-17T04:48:26.550Z,32.37
2022-12-17T04:51:09.381Z,34.60
2022-12-17T04:53:55.408Z,34.13
2022-12-17T04:56:41.315Z,33.80
2022-12-17T04:59:28.306Z,33.53
2022-12-17T05:02:14.445Z,35.43
2022-12-17T05:05:00.279Z,37.03
2022-12-17T05:07:46.213Z,33.97
2022-12-17T05:10:32.087Z,36.33
2022-12-17T05:13:18.889Z,35.40
2022-12-17T05:16:06.419Z,36.33
2022-12-17T05:18:52.368Z,36.97
2022-12-17T05:21:38.069Z,38.17
2022-12-17T05:24:24.339Z,38.30
2022-12-17T05:27:10.333Z,36.57
2022-12-17T05:29:56.189Z,38.20
2022-12-17T05:32:43.148Z,38.07
2022-12-17T05:35:29.045Z,40.50
2022-12-17T05:38:21.809Z,38.33
2022-12-17T05:41:07.532Z,38.70
2022-12-17T05:43:53.493Z,38.80
2022-12-17T05:46:48.211Z,37.93
2022-12-17T05:49:35.396Z,39.03
2022-12-17T05:52:21.084Z,40.33
2022-12-17T05:55:12.111Z,38.03
2022-12-17T05:57:57.807Z,37.73
2022-12-17T06:00:43.709Z,39.47
2022-12-17T06:03:29.704Z,38.37
2022-12-17T06:06:16.885Z,38.53
2022-12-17T06:09:02.865Z,38.73
2022-12-17T06:11:48.645Z,40.60
2022-12-17T06:14:34.656Z,41.40
2022-12-17T06:17:20.241Z,40.83
2022-12-17T06:20:06.132Z,41.50
2022-12-17T06:22:53.346Z,42.27
2022-12-17T06:25:39.318Z,43.73
2022-12-17T06:28:25.205Z,43.33
2022-12-17T06:31:12.164Z,43.70
2022-12-17T06:33:59.121Z,43.07
2022-12-17T06:36:44.834Z,41.67
2022-12-17T06:39:31.969Z,41.73
2022-12-17T06:42:18.086Z,42.03
2022-12-17T06:45:03.680Z,42.17
2022-12-17T06:47:49.191Z,39.37
2022-12-17T06:50:34.873Z,41.40
2022-12-17T06:53:22.356Z,41.60
2022-12-17T06:56:12.203Z,42.63
2022-12-17T06:58:57.878Z,41.10
2022-12-17T07:01:44.389Z,40.60
2022-12-17T07:04:30.697Z,40.40
2022-12-17T07:07:19.384Z,43.03
2022-12-17T07:10:12.133Z,41.87
2022-12-17T07:12:57.688Z,41.67
2022-12-17T07:15:43.525Z,41.67
2022-12-17T07:18:29.401Z,41.73
2022-12-17T07:21:15.340Z,43.63
2022-12-17T07:24:01.003Z,42.73
2022-12-17T07:26:46.824Z,45.50
2022-12-17T07:29:33.903Z,45.83
2022-12-17T07:32:19.778Z,44.23
2022-12-17T07:35:05.618Z,41.50
2022-12-17T07:37:51.423Z,44.53
2022-12-17T07:40:37.280Z,45.77
2022-12-17T07:43:29.615Z,43.73
2022-12-17T07:46:19.670Z,44.47
2022-12-17T07:49:05.617Z,41.72
2022-12-17T07:51:51.470Z,42.87
2022-12-17T07:54:37.345Z,44.03
2022-12-17T07:57:23.148Z,44.07
2022-12-17T08:00:09.026Z,43.90
2022-12-17T08:02:56.336Z,44.20
2022-12-17T08:05:42.410Z,43.77
2022-12-17T08:08:29.697Z,45.53
2022-12-17T08:11:15.662Z,44.27
2022-12-17T08:14:01.312Z,43.03
2022-12-17T08:16:47.372Z,43.10
2022-12-17T08:19:34.219Z,43.60
2022-12-17T08:22:20.178Z,42.50
2022-12-17T08:25:06.101Z,42.93
2022-12-17T08:27:52.185Z,43.37
2022-12-17T08:30:38.048Z,45.73
2022-12-17T08:33:24.597Z,44.90
2022-12-17T08:36:13.471Z,45.60
2022-12-17T08:38:59.338Z,45.10
2022-12-17T08:41:48.475Z,43.43
2022-12-17T08:44:37.157Z,42.60
2022-12-17T08:47:22.826Z,41.57
2022-12-17T08:50:08.651Z,41.73
2022-12-17T08:52:56.028Z,40.03
2022-12-17T08:55:42.055Z,40.17
2022-12-17T08:58:27.988Z,39.93
2022-12-17T09:01:16.879Z,38.40
2022-12-17T09:04:04.048Z,37.90
2022-12-17T09:06:49.990Z,37.73
2022-12-17T09:09:37.251Z,36.67
2022-12-17T09:12:23.885Z,37.33
2022-12-17T09:15:09.553Z,37.37
2022-12-17T09:17:55.476Z,36.87
2022-12-17T09:20:41.582Z,37.43
2022-12-17T09:23:27.662Z,36.07
2022-12-17T09:26:16.032Z,34.80
2022-12-17T09:29:04.820Z,35.93
2022-12-17T09:31:51.748Z,34.73
2022-12-17T09:34:37.883Z,35.20
2022-12-17T09:37:24.303Z,35.57
2022-12-17T09:40:10.354Z,37.43
2022-12-17T09:43:07.099Z,36.33
2022-12-17T09:46:01.083Z,37.97
2022-12-17T09:48:55.114Z,37.97
2022-12-17T09:51:44.464Z,38.93
2022-12-17T09:54:38.477Z,39.00
2022-12-17T09:57:29.473Z,39.77
2022-12-17T10:00:16.645Z,37.63
2022-12-17T10:03:02.770Z,38.47
2022-12-17T10:05:51.103Z,39.53
2022-12-17T10:08:40.000Z,38.63
2022-12-17T10:11:41.702Z,37.67
2022-12-17T10:14:35.592Z,37.95
2022-12-17T10:17:23.371Z,38.63
2022-12-17T10:20:12.697Z,39.13
2022-12-17T10:23:05.126Z,37.67
2022-12-17T10:26:02.794Z,35.90
2022-12-17T10:28:51.409Z,34.92
2022-12-17T10:31:41.417Z,34.97
2022-12-17T10:34:35.312Z,32.40
2022-12-17T10:37:21.447Z,33.53
2022-12-17T10:40:15.009Z,32.45
2022-12-17T10:43:12.993Z,31.80
2022-12-17T10:45:58.819Z,32.83
2022-12-17T10:48:48.273Z,31.30
2022-12-17T10:51:50.251Z,30.10
2022-12-17T10:54:49.130Z,31.20
2022-12-17T10:57:43.733Z,31.98
2022-12-17T11:00:49.814Z,29.55
2022-12-17T11:03:51.484Z,31.17
2022-12-17T11:06:45.129Z,31.35
2022-12-17T11:09:45.804Z,30.67
2022-12-17T11:12:32.900Z,30.92
2022-12-17T11:15:27.817Z,32.15
2022-12-17T11:18:14.686Z,31.70
2022-12-17T11:21:09.120Z,30.35
2022-12-17T11:24:01.573Z,30.50
2022-12-17T11:26:51.344Z,29.95
2022-12-17T11:29:37.100Z,28.57
2022-12-17T11:33:19.261Z,29.50
2022-12-17T11:36:13.021Z,28.40
2022-12-17T11:39:08.923Z,28.65
2022-12-17T11:42:10.856Z,28.38
2022-12-17T11:45:09.493Z,27.63
2022-12-17T11:48:02.822Z,26.73
2022-12-17T11:50:59.417Z,26.55
2022-12-17T11:54:07.649Z,25.35
2022-12-17T11:56:58.337Z,26.23
2022-12-17T12:02:58.131Z,26.55
2022-12-17T12:05:56.855Z,27.63
2022-12-17T12:08:46.488Z,29.05
2022-12-17T12:11:45.399Z,28.00
2022-12-17T12:14:47.704Z,28.95
2022-12-17T12:17:57.871Z,28.90
2022-12-17T12:21:14.132Z,29.40
2022-12-17T12:24:13.161Z,29.83
2022-12-17T12:27:10.688Z,29.58
2022-12-17T12:30:03.172Z,29.48
2022-12-17T12:32:59.892Z,27.95
2022-12-17T12:35:48.232Z,27.85
2022-12-17T12:38:44.324Z,29.30
2022-12-17T12:41:38.841Z,29.90
2022-12-17T12:44:40.327Z,29.58
2022-12-17T12:47:36.515Z,30.25
2022-12-17T12:50:36.557Z,30.92
2022-12-17T12:53:22.910Z,31.13
2022-12-17T12:56:08.961Z,32.35
2022-12-17T12:58:55.486Z,33.58
2022-12-17T13:01:53.247Z,34.00
2022-12-17T13:04:53.554Z,35.60
2022-12-17T13:07:25.408Z,31.83
2022-12-17T13:09:57.034Z,33.60
2022-12-17T13:12:32.549Z,31.42
2022-12-17T13:15:18.020Z,32.25
2022-12-17T13:18:00.388Z,30.33
2022-12-17T13:20:32.657Z,31.70
2022-12-17T13:23:19.464Z,31.63
2022-12-17T13:25:47.815Z,31.52
2022-12-17T13:28:30.772Z,31.40
2022-12-17T13:31:03.549Z,31.42
2022-12-17T13:33:45.044Z,33.55
2022-12-17T13:36:21.635Z,35.60
2022-12-17T13:38:58.451Z,34.95
2022-12-17T13:41:31.541Z,40.90
2022-12-17T13:44:04.207Z,39.53
2022-12-17T13:46:46.873Z,42.03
2022-12-17T13:49:22.042Z,42.07
2022-12-17T13:52:05.204Z,44.37
2022-12-17T13:54:36.460Z,44.07
2022-12-17T13:57:10.629Z,44.33
2022-12-17T13:59:39.644Z,43.23
2022-12-17T14:02:08.052Z,44.37
2022-12-17T14:04:37.825Z,39.50
2022-12-17T14:07:07.135Z,38.80
2022-12-17T14:09:40.151Z,39.57
2022-12-17T14:12:24.596Z,37.23
2022-12-17T14:14:57.095Z,37.63
2022-12-17T14:17:27.742Z,35.95
2022-12-17T14:22:36.167Z,37.30
2022-12-17T14:25:12.684Z,40.93
2022-12-17T14:27:42.615Z,43.80
2022-12-17T14:30:25.038Z,39.45
2022-12-17T14:32:53.582Z,42.93
2022-12-17T14:35:28.533Z,42.43
2022-12-17T14:37:57.364Z,42.57
2022-12-17T14:40:27.321Z,44.80
2022-12-17T14:43:01.521Z,43.63
2022-12-17T14:45:30.539Z,45.30
2022-12-17T14:48:00.606Z,45.03
2022-12-17T14:50:34.022Z,45.67
2022-12-17T14:53:06.918Z,45.63
2022-12-17T14:55:38.699Z,44.80
2022-12-17T14:58:18.835Z,44.60
2022-12-17T15:00:51.852Z,45.65
2022-12-17T15:03:24.914Z,43.53
2022-12-17T15:05:59.217Z,45.27
2022-12-17T15:08:28.810Z,44.80
2022-12-17T15:10:58.628Z,43.90
2022-12-17T15:13:27.099Z,45.28
2022-12-17T15:15:55.385Z,45.97
2022-12-17T15:20:56.043Z,49.40
2022-12-17T15:23:25.885Z,52.80
2022-12-17T15:25:55.467Z,51.77
2022-12-17T15:28:24.328Z,55.70
2022-12-17T15:30:52.747Z,54.60
2022-12-17T15:33:21.231Z,57.33
2022-12-17T15:35:49.481Z,56.17
2022-12-17T15:38:19.161Z,58.13
2022-12-17T15:40:47.496Z,59.40
2022-12-17T15:43:15.911Z,57.90
2022-12-17T15:45:48.065Z,59.63
2022-12-17T15:48:19.556Z,57.40
2022-12-17T15:50:50.073Z,56.77
2022-12-17T15:55:47.918Z,58.17
2022-12-17T15:58:16.661Z,57.77
2022-12-17T16:00:45.042Z,59.63
2022-12-17T16:03:14.107Z,59.70
2022-12-17T16:05:42.486Z,57.80
2022-12-17T16:08:10.877Z,59.40
2022-12-17T16:10:41.008Z,59.73
2022-12-17T16:13:09.337Z,60.67
2022-12-17T16:15:37.593Z,60.73
2022-12-17T16:18:06.176Z,59.10
2022-12-17T16:20:34.608Z,61.70
2022-12-17T16:23:03.145Z,59.77
2022-12-17T16:25:31.660Z,61.80
2022-12-17T16:28:01.353Z,58.33
2022-12-17T16:30:29.672Z,59.85
2022-12-17T16:32:59.867Z,57.77
2022-12-17T16:35:29.404Z,57.50
2022-12-17T16:37:57.647Z,58.03
2022-12-17T16:40:26.228Z,55.80
2022-12-17T16:42:54.453Z,58.10
2022-12-17T16:45:24.076Z,54.63
2022-12-17T16:47:52.352Z,59.63
2022-12-17T16:50:20.794Z,58.00
2022-12-17T16:52:49.066Z,58.07
2022-12-17T16:55:17.495Z,56.27
2022-12-17T16:57:48.572Z,59.07
2022-12-17T17:00:18.323Z,57.97
2022-12-17T17:02:52.938Z,58.15
2022-12-17T17:05:21.904Z,63.03
2022-12-17T17:07:50.164Z,62.67
2022-12-17T17:10:18.564Z,64.53
2022-12-17T17:12:46.938Z,66.87
2022-12-17T17:15:15.201Z,67.33
2022-12-17T17:17:55.142Z,70.73
2022-12-17T17:20:26.388Z,67.63
2022-12-17T17:22:57.630Z,66.78
2022-12-17T17:25:34.730Z,66.17
2022-12-17T17:28:12.475Z,68.37
2022-12-17T17:30:40.794Z,70.90
2022-12-17T17:33:09.129Z,69.27
2022-12-17T17:35:38.739Z,71.60
2022-12-17T17:38:07.042Z,67.57
2022-12-17T17:40:35.421Z,70.50
2022-12-17T17:43:03.693Z,69.53
2022-12-17T17:45:31.980Z,73.90
2022-12-17T17:48:00.316Z,72.80
2022-12-17T17:50:28.556Z,74.40
2022-12-17T17:52:58.262Z,77.10
2022-12-17T17:55:28.496Z,74.70
2022-12-17T17:57:56.799Z,74.43
2022-12-17T18:00:25.125Z,70.87
2022-12-17T18:02:54.006Z,72.80
2022-12-17T18:05:24.192Z,77.40
2022-12-17T18:10:24.859Z,73.57
2022-12-17T18:13:10.683Z,75.83
2022-12-17T18:15:39.206Z,72.60
2022-12-17T18:18:14.201Z,75.70
2022-12-17T18:20:43.173Z,79.83
2022-12-17T18:23:11.487Z,76.10
2022-12-17T18:25:41.222Z,72.67
2022-12-17T18:28:09.893Z,76.70
2022-12-17T18:30:40.045Z,75.33
2022-12-17T18:33:08.329Z,74.50
2022-12-17T18:35:36.732Z,75.17
2022-12-17T18:38:05.037Z,74.80
2022-12-17T18:40:33.738Z,76.40
2022-12-17T18:43:21.193Z,76.03
2022-12-17T18:45:49.512Z,72.43
2022-12-17T18:48:17.846Z,74.60
2022-12-17T18:50:46.147Z,71.77
2022-12-17T18:53:14.519Z,74.77
2022-12-17T18:55:42.922Z,74.30
2022-12-17T18:58:12.831Z,72.87
2022-12-17T19:00:41.280Z,71.03
2022-12-17T19:03:10.167Z,72.33
2022-12-17T19:05:45.157Z,71.77
2022-12-17T19:08:15.099Z,71.03
2022-12-17T19:10:43.492Z,75.77
2022-12-17T19:13:13.217Z,71.10
2022-12-17T19:15:41.754Z,70.57
2022-12-17T19:18:10.283Z,71.77
2022-12-17T19:20:38.611Z,72.57
2022-12-17T19:23:06.850Z,73.37
2022-12-17T19:25:35.735Z,72.20
2022-12-17T19:28:04.058Z,76.00
2022-12-17T19:30:33.761Z,71.67
2022-12-17T19:33:02.343Z,73.70
2022-12-17T19:35:30.680Z,71.13
2022-12-17T19:37:58.985Z,67.20
2022-12-17T19:40:27.471Z,68.73
2022-12-17T19:42:56.541Z,69.17
2022-12-17T19:45:24.974Z,67.60
2022-12-17T19:47:55.372Z,66.90
2022-12-17T19:52:51.951Z,67.17
2022-12-17T19:55:21.576Z,64.00
2022-12-17T19:57:49.980Z,69.43
2022-12-17T20:00:18.852Z,67.57
2022-12-17T20:02:47.342Z,67.67
2022-12-17T20:05:17.265Z,63.67
2022-12-17T20:07:45.755Z,65.00
2022-12-17T20:10:14.290Z,61.77
2022-12-17T20:12:42.763Z,62.57
2022-12-17T20:15:12.382Z,62.45
2022-12-17T20:17:40.880Z,62.57
2022-12-17T20:20:10.733Z,62.17
2022-12-17T20:22:40.518Z,64.15
2022-12-17T20:25:11.323Z,66.50
2022-12-17T20:27:39.795Z,62.57
2022-12-17T20:30:09.769Z,64.40
2022-12-17T20:32:38.642Z,64.07
2022-12-17T20:35:08.779Z,63.13
2022-12-17T20:37:37.455Z,60.97
2022-12-17T20:40:09.517Z,61.47
2022-12-17T20:42:38.114Z,62.67
2022-12-17T20:45:07.351Z,67.87
2022-12-17T20:47:35.709Z,64.03
2022-12-17T20:50:04.459Z,64.83
2022-12-17T20:52:32.740Z,64.00
2022-12-17T20:55:01.103Z,67.40
2022-12-17T20:57:31.142Z,69.00
2022-12-17T20:59:59.457Z,70.55
2022-12-17T21:02:27.883Z,70.63
2022-12-17T21:04:56.322Z,70.47
2022-12-17T21:07:24.607Z,69.27
2022-12-17T21:09:52.940Z,66.23
2022-12-17T21:12:21.519Z,67.70
2022-12-17T21:14:51.360Z,65.37
2022-12-17T21:17:19.790Z,64.00
2022-12-17T21:19:48.194Z,65.00
2022-12-17T21:22:16.783Z,65.33
2022-12-17T21:24:45.120Z,66.07
2022-12-17T21:27:15.093Z,67.90
2022-12-17T21:29:43.577Z,66.07
2022-12-17T21:32:13.359Z,66.80
2022-12-17T21:34:41.660Z,67.60
2022-12-17T21:37:11.189Z,66.40
2022-12-17T21:39:39.625Z,67.05
2022-12-17T21:42:25.423Z,68.33
2022-12-17T21:44:53.706Z,68.40
2022-12-17T21:47:23.891Z,67.37
2022-12-17T21:49:52.391Z,65.95
2022-12-17T21:52:20.667Z,67.10
2022-12-17T21:54:49.007Z,67.90
2022-12-17T21:57:17.556Z,68.67
2022-12-17T21:59:45.840Z,70.83
2022-12-17T22:02:14.228Z,66.63
2022-12-17T22:04:44.369Z,69.97
2022-12-17T22:07:19.531Z,69.15
2022-12-17T22:10:30.564Z,65.47
2022-12-17T22:13:02.952Z,65.30
2022-12-17T22:15:32.427Z,69.00
2022-12-17T22:18:08.207Z,64.07
2022-12-17T22:20:37.941Z,65.20
2022-12-17T22:23:07.409Z,63.63
2022-12-17T22:25:38.486Z,67.13
2022-12-17T22:28:07.145Z,65.87
2022-12-17T22:30:52.803Z,67.83
2022-12-17T22:33:44.394Z,67.10
2022-12-17T22:38:07.602Z,69.00
2022-12-17T22:42:57.840Z,65.15
2022-12-17T22:44:37.955Z,69.63
2022-12-17T22:44:57.853Z,66.80
2022-12-17T22:47:30.471Z,63.57
2022-12-17T22:49:58.663Z,65.43
2022-12-17T22:52:28.763Z,63.60
2022-12-17T22:54:57.620Z,65.75
2022-12-17T22:57:36.661Z,64.97
2022-12-17T23:02:39.940Z,65.17
2022-12-17T23:05:08.995Z,63.47
2022-12-17T23:07:38.768Z,60.93
2022-12-17T23:10:08.268Z,63.05
2022-12-17T23:12:51.594Z,63.92
2022-12-17T23:15:22.616Z,63.30
2022-12-17T23:17:52.818Z,67.07
2022-12-17T23:20:21.787Z,63.10
2022-12-17T23:22:51.465Z,57.90
2022-12-17T23:25:20.296Z,66.05
2022-12-17T23:27:49.191Z,65.33
2022-12-17T23:30:18.640Z,67.07
2022-12-17T23:32:47.673Z,65.75
2022-12-17T23:35:16.303Z,69.13
2022-12-17T23:37:44.619Z,65.13
2022-12-17T23:40:16.609Z,66.73
2022-12-17T23:42:44.920Z,66.13
2022-12-17T23:45:13.187Z,65.17
2022-12-17T23:47:42.272Z,65.47
2022-12-17T23:50:12.386Z,67.03
2022-12-17T23:52:40.999Z,64.75
2022-12-17T23:55:11.591Z,63.67
2022-12-17T23:57:42.145Z,66.27
